sensor_id;sensor_type;location;lat;lon;timestamp;temperature;humidity
20831;DHT22;10576;53.556;9.868;2024-01-07T00:00:17;-0.80;99.90
20831;DHT22;10576;53.556;9.868;2024-01-07T00:02:42;-0.80;99.90
20831;DHT22;10576;53.556;9.868;2024-01-07T00:05:08;-0.80;99.90
20831;DHT22;10576;53.556;9.868;2024-01-07T00:07:33;-0.80;99.90
20831;DHT22;10576;53.556;9.868;2024-01-07T00:09:59;-0.80;99.90
20831;DHT22;10576;53.556;9.868;2024-01-07T00:12:24;-0.80;99.90
20831;DHT22;10576;53.556;9.868;2024-01-07T00:14:50;-1.20;99.90
20831;DHT22;10576;53.556;9.868;2024-01-07T00:17:16;-0.90;99.90
20831;DHT22;10576;53.556;9.868;2024-01-07T00:19:41;-1.00;99.90
20831;DHT22;10576;53.556;9.868;2024-01-07T00:22:07;-1.00;99.90
20831;DHT22;10576;53.556;9.868;2024-01-07T00:24:32;-1.00;99.90
20831;DHT22;10576;53.556;9.868;2024-01-07T00:26:58;-1.30;99.90
20831;DHT22;10576;53.556;9.868;2024-01-07T00:29:23;-1.20;99.90
20831;DHT22;10576;53.556;9.868;2024-01-07T00:31:49;-1.10;99.90
20831;DHT22;10576;53.556;9.868;2024-01-07T00:34:15;-1.20;99.90
20831;DHT22;10576;53.556;9.868;2024-01-07T00:36:40;-1.20;99.90
20831;DHT22;10576;53.556;9.868;2024-01-07T00:39:06;-1.20;99.90
20831;DHT22;10576;53.556;9.868;2024-01-07T00:41:31;-1.30;99.90
20831;DHT22;10576;53.556;9.868;2024-01-07T00:43:57;-1.30;99.90
20831;DHT22;10576;53.556;9.868;2024-01-07T00:46:22;-1.30;99.90
20831;DHT22;10576;53.556;9.868;2024-01-07T00:48:48;-1.30;99.90
20831;DHT22;10576;53.556;9.868;2024-01-07T00:51:13;-1.30;99.90
20831;DHT22;10576;53.556;9.868;2024-01-07T00:53:39;-1.40;99.90
20831;DHT22;10576;53.556;9.868;2024-01-07T00:56:04;-1.30;99.90
20831;DHT22;10576;53.556;9.868;2024-01-07T00:58:30;-1.30;99.90
20831;DHT22;10576;53.556;9.868;2024-01-07T01:00:55;-1.40;99.90
20831;DHT22;10576;53.556;9.868;2024-01-07T01:03:21;-1.40;99.90
20831;DHT22;10576;53.556;9.868;2024-01-07T01:05:46;-1.40;99.90
20831;DHT22;10576;53.556;9.868;2024-01-07T01:08:12;-1.70;99.90
20831;DHT22;10576;53.556;9.868;2024-01-07T01:10:37;-1.40;99.90
20831;DHT22;10576;53.556;9.868;2024-01-07T01:13:03;-1.50;99.90
20831;DHT22;10576;53.556;9.868;2024-01-07T01:15:29;-1.60;99.90
20831;DHT22;10576;53.556;9.868;2024-01-07T01:17:54;-1.50;99.90
20831;DHT22;10576;53.556;9.868;2024-01-07T01:20:20;-1.60;99.90
20831;DHT22;10576;53.556;9.868;2024-01-07T01:22:45;-1.60;99.90
20831;DHT22;10576;53.556;9.868;2024-01-07T01:25:11;-1.60;99.90
20831;DHT22;10576;53.556;9.868;2024-01-07T01:27:36;-1.50;99.90
20831;DHT22;10576;53.556;9.868;2024-01-07T01:30:02;-1.60;99.90
20831;DHT22;10576;53.556;9.868;2024-01-07T01:32:28;-1.60;99.90
20831;DHT22;10576;53.556;9.868;2024-01-07T01:34:53;-1.70;99.90
20831;DHT22;10576;53.556;9.868;2024-01-07T01:37:19;-0.80;99.90
20831;DHT22;10576;53.556;9.868;2024-01-07T01:39:44;-1.70;99.90
20831;DHT22;10576;53.556;9.868;2024-01-07T01:42:09;-1.70;99.90
20831;DHT22;10576;53.556;9.868;2024-01-07T01:44:35;-1.70;99.90
20831;DHT22;10576;53.556;9.868;2024-01-07T01:47:00;-1.70;99.90
20831;DHT22;10576;53.556;9.868;2024-01-07T01:49:27;-1.70;99.90
20831;DHT22;10576;53.556;9.868;2024-01-07T01:51:52;-1.70;99.90
20831;DHT22;10576;53.556;9.868;2024-01-07T01:54:18;-1.70;99.90
20831;DHT22;10576;53.556;9.868;2024-01-07T01:56:44;-1.70;99.90
20831;DHT22;10576;53.556;9.868;2024-01-07T01:59:10;-1.70;99.90
20831;DHT22;10576;53.556;9.868;2024-01-07T02:01:36;-1.70;99.90
20831;DHT22;10576;53.556;9.868;2024-01-07T02:04:01;-1.70;99.90
20831;DHT22;10576;53.556;9.868;2024-01-07T02:06:27;-1.70;99.90
20831;DHT22;10576;53.556;9.868;2024-01-07T02:08:52;-1.60;99.90
20831;DHT22;10576;53.556;9.868;2024-01-07T02:11:18;-1.60;99.90
20831;DHT22;10576;53.556;9.868;2024-01-07T02:13:44;-1.60;99.90
20831;DHT22;10576;53.556;9.868;2024-01-07T02:16:10;-1.60;99.90
20831;DHT22;10576;53.556;9.868;2024-01-07T02:18:36;-1.60;99.90
20831;DHT22;10576;53.556;9.868;2024-01-07T02:21:02;-1.60;99.90
20831;DHT22;10576;53.556;9.868;2024-01-07T02:23:27;-1.50;99.90
20831;DHT22;10576;53.556;9.868;2024-01-07T02:25:53;-1.50;99.90
20831;DHT22;10576;53.556;9.868;2024-01-07T02:28:18;-1.50;99.90
20831;DHT22;10576;53.556;9.868;2024-01-07T02:30:44;-1.40;99.90
20831;DHT22;10576;53.556;9.868;2024-01-07T02:33:09;-1.40;99.90
20831;DHT22;10576;53.556;9.868;2024-01-07T02:35:35;-1.40;99.90
20831;DHT22;10576;53.556;9.868;2024-01-07T02:38:00;-1.40;99.90
20831;DHT22;10576;53.556;9.868;2024-01-07T02:40:26;-1.30;99.90
20831;DHT22;10576;53.556;9.868;2024-01-07T02:42:51;-1.30;99.90
20831;DHT22;10576;53.556;9.868;2024-01-07T02:45:17;-1.40;99.90
20831;DHT22;10576;53.556;9.868;2024-01-07T02:47:42;-1.20;99.90
20831;DHT22;10576;53.556;9.868;2024-01-07T02:50:08;-1.20;99.90
20831;DHT22;10576;53.556;9.868;2024-01-07T02:52:36;-1.20;99.90
20831;DHT22;10576;53.556;9.868;2024-01-07T02:55:01;-1.20;99.90
20831;DHT22;10576;53.556;9.868;2024-01-07T02:57:27;-1.20;99.90
20831;DHT22;10576;53.556;9.868;2024-01-07T02:59:52;-1.10;99.90
20831;DHT22;10576;53.556;9.868;2024-01-07T03:02:18;-1.00;99.90
20831;DHT22;10576;53.556;9.868;2024-01-07T03:04:44;-1.00;99.90
20831;DHT22;10576;53.556;9.868;2024-01-07T03:07:09;-1.20;99.90
20831;DHT22;10576;53.556;9.868;2024-01-07T03:09:35;-1.00;99.90
20831;DHT22;10576;53.556;9.868;2024-01-07T03:12:00;-0.90;99.90
20831;DHT22;10576;53.556;9.868;2024-01-07T03:14:26;-0.90;99.90
20831;DHT22;10576;53.556;9.868;2024-01-07T03:16:52;-1.00;99.90
20831;DHT22;10576;53.556;9.868;2024-01-07T03:19:17;-1.00;99.90
20831;DHT22;10576;53.556;9.868;2024-01-07T03:21:43;-0.90;99.90
20831;DHT22;10576;53.556;9.868;2024-01-07T03:24:08;-0.90;99.90
20831;DHT22;10576;53.556;9.868;2024-01-07T03:26:34;-0.90;99.90
20831;DHT22;10576;53.556;9.868;2024-01-07T03:28:59;-1.10;99.90
20831;DHT22;10576;53.556;9.868;2024-01-07T03:31:26;-0.80;99.90
20831;DHT22;10576;53.556;9.868;2024-01-07T03:33:51;-0.80;99.90
20831;DHT22;10576;53.556;9.868;2024-01-07T03:36:17;-1.00;99.90
20831;DHT22;10576;53.556;9.868;2024-01-07T03:38:43;-0.80;99.90
20831;DHT22;10576;53.556;9.868;2024-01-07T03:41:08;-0.70;99.90
20831;DHT22;10576;53.556;9.868;2024-01-07T03:43:34;-0.70;99.90
20831;DHT22;10576;53.556;9.868;2024-01-07T03:45:59;-0.70;99.90
20831;DHT22;10576;53.556;9.868;2024-01-07T03:48:25;-0.70;99.90
20831;DHT22;10576;53.556;9.868;2024-01-07T03:50:51;-0.70;99.90
20831;DHT22;10576;53.556;9.868;2024-01-07T03:53:17;-0.70;99.90
20831;DHT22;10576;53.556;9.868;2024-01-07T03:55:42;-0.60;99.90
20831;DHT22;10576;53.556;9.868;2024-01-07T03:58:08;-0.80;99.90
20831;DHT22;10576;53.556;9.868;2024-01-07T04:00:34;-0.60;99.90
20831;DHT22;10576;53.556;9.868;2024-01-07T04:03:00;-0.60;99.90
20831;DHT22;10576;53.556;9.868;2024-01-07T04:05:25;-0.80;99.90
20831;DHT22;10576;53.556;9.868;2024-01-07T04:07:51;-0.60;99.90
20831;DHT22;10576;53.556;9.868;2024-01-07T04:10:17;-0.50;99.90
20831;DHT22;10576;53.556;9.868;2024-01-07T04:12:42;-0.80;99.90
20831;DHT22;10576;53.556;9.868;2024-01-07T04:15:08;-0.80;99.90
20831;DHT22;10576;53.556;9.868;2024-01-07T04:17:33;-0.50;99.90
20831;DHT22;10576;53.556;9.868;2024-01-07T04:19:59;-0.40;99.90
20831;DHT22;10576;53.556;9.868;2024-01-07T04:22:24;-0.50;99.90
20831;DHT22;10576;53.556;9.868;2024-01-07T04:24:50;-0.40;99.90
20831;DHT22;10576;53.556;9.868;2024-01-07T04:27:15;-0.40;99.90
20831;DHT22;10576;53.556;9.868;2024-01-07T04:29:41;-0.40;99.90
20831;DHT22;10576;53.556;9.868;2024-01-07T04:32:06;-0.40;99.90
20831;DHT22;10576;53.556;9.868;2024-01-07T04:34:32;-0.50;99.90
20831;DHT22;10576;53.556;9.868;2024-01-07T04:36:57;-0.50;99.90
20831;DHT22;10576;53.556;9.868;2024-01-07T04:39:23;-0.30;99.90
20831;DHT22;10576;53.556;9.868;2024-01-07T04:41:48;-0.20;99.90
20831;DHT22;10576;53.556;9.868;2024-01-07T04:44:14;-0.60;99.90
20831;DHT22;10576;53.556;9.868;2024-01-07T04:46:39;-0.20;99.90
20831;DHT22;10576;53.556;9.868;2024-01-07T04:49:05;-0.20;99.90
20831;DHT22;10576;53.556;9.868;2024-01-07T04:51:31;-0.10;99.90
20831;DHT22;10576;53.556;9.868;2024-01-07T04:53:57;-0.20;99.90
20831;DHT22;10576;53.556;9.868;2024-01-07T04:56:22;-0.40;99.90
20831;DHT22;10576;53.556;9.868;2024-01-07T04:58:48;-0.30;99.90
20831;DHT22;10576;53.556;9.868;2024-01-07T05:01:13;-0.10;99.90
20831;DHT22;10576;53.556;9.868;2024-01-07T05:03:39;-0.10;99.90
20831;DHT22;10576;53.556;9.868;2024-01-07T05:06:04;-0.20;99.90
20831;DHT22;10576;53.556;9.868;2024-01-07T05:08:30;-0.10;99.90
20831;DHT22;10576;53.556;9.868;2024-01-07T05:10:55;-0.10;99.90
20831;DHT22;10576;53.556;9.868;2024-01-07T05:13:21;-0.10;99.90
20831;DHT22;10576;53.556;9.868;2024-01-07T05:15:47;-0.30;99.90
20831;DHT22;10576;53.556;9.868;2024-01-07T05:18:22;-0.20;99.90
20831;DHT22;10576;53.556;9.868;2024-01-07T05:20:48;-0.10;99.90
20831;DHT22;10576;53.556;9.868;2024-01-07T05:23:13;-0.10;99.90
20831;DHT22;10576;53.556;9.868;2024-01-07T05:25:39;1.00;99.90
20831;DHT22;10576;53.556;9.868;2024-01-07T05:28:04;-0.20;99.90
20831;DHT22;10576;53.556;9.868;2024-01-07T05:30:30;0.00;99.90
20831;DHT22;10576;53.556;9.868;2024-01-07T05:32:55;-0.10;99.90
20831;DHT22;10576;53.556;9.868;2024-01-07T05:35:21;1.30;99.90
20831;DHT22;10576;53.556;9.868;2024-01-07T05:37:46;0.00;99.90
20831;DHT22;10576;53.556;9.868;2024-01-07T05:40:12;0.00;99.90
20831;DHT22;10576;53.556;9.868;2024-01-07T05:42:37;0.00;99.90
20831;DHT22;10576;53.556;9.868;2024-01-07T05:45:03;0.30;99.90
20831;DHT22;10576;53.556;9.868;2024-01-07T05:47:29;0.00;99.90
20831;DHT22;10576;53.556;9.868;2024-01-07T05:49:55;-0.20;99.90
20831;DHT22;10576;53.556;9.868;2024-01-07T05:52:21;-0.10;99.90
20831;DHT22;10576;53.556;9.868;2024-01-07T05:54:46;-0.40;99.90
20831;DHT22;10576;53.556;9.868;2024-01-07T05:57:12;-0.10;99.90
20831;DHT22;10576;53.556;9.868;2024-01-07T05:59:37;-0.40;99.90
20831;DHT22;10576;53.556;9.868;2024-01-07T06:02:03;0.00;99.90
20831;DHT22;10576;53.556;9.868;2024-01-07T06:04:28;0.00;99.90
20831;DHT22;10576;53.556;9.868;2024-01-07T06:06:54;0.00;99.90
20831;DHT22;10576;53.556;9.868;2024-01-07T06:09:20;0.00;99.90
20831;DHT22;10576;53.556;9.868;2024-01-07T06:11:45;0.00;99.90
20831;DHT22;10576;53.556;9.868;2024-01-07T06:14:12;0.80;99.90
20831;DHT22;10576;53.556;9.868;2024-01-07T06:16:37;-0.20;99.90
20831;DHT22;10576;53.556;9.868;2024-01-07T06:19:03;0.00;99.90
20831;DHT22;10576;53.556;9.868;2024-01-07T06:21:28;0.00;99.90
20831;DHT22;10576;53.556;9.868;2024-01-07T06:23:54;-0.10;99.90
20831;DHT22;10576;53.556;9.868;2024-01-07T06:26:20;-0.10;99.90
20831;DHT22;10576;53.556;9.868;2024-01-07T06:28:45;-0.10;99.90
20831;DHT22;10576;53.556;9.868;2024-01-07T06:31:11;-0.10;99.90
20831;DHT22;10576;53.556;9.868;2024-01-07T06:33:36;-0.10;99.90
20831;DHT22;10576;53.556;9.868;2024-01-07T06:36:02;0.40;99.90
20831;DHT22;10576;53.556;9.868;2024-01-07T06:38:28;-0.10;99.90
20831;DHT22;10576;53.556;9.868;2024-01-07T06:40:53;-0.10;99.90
20831;DHT22;10576;53.556;9.868;2024-01-07T06:43:27;0.00;99.90
20831;DHT22;10576;53.556;9.868;2024-01-07T06:45:52;0.00;99.90
20831;DHT22;10576;53.556;9.868;2024-01-07T06:48:18;0.00;99.90
20831;DHT22;10576;53.556;9.868;2024-01-07T06:50:44;-0.10;99.90
20831;DHT22;10576;53.556;9.868;2024-01-07T06:53:09;-0.10;99.90
20831;DHT22;10576;53.556;9.868;2024-01-07T06:55:35;-0.20;99.90
20831;DHT22;10576;53.556;9.868;2024-01-07T06:58:00;-0.40;99.90
20831;DHT22;10576;53.556;9.868;2024-01-07T07:00:26;-0.20;99.90
20831;DHT22;10576;53.556;9.868;2024-01-07T07:02:52;-0.50;99.90
20831;DHT22;10576;53.556;9.868;2024-01-07T07:05:17;-0.20;99.90
20831;DHT22;10576;53.556;9.868;2024-01-07T07:07:42;-0.20;99.90
20831;DHT22;10576;53.556;9.868;2024-01-07T07:10:08;-0.20;99.90
20831;DHT22;10576;53.556;9.868;2024-01-07T07:12:34;-0.20;99.90
20831;DHT22;10576;53.556;9.868;2024-01-07T07:14:59;-0.20;99.90
20831;DHT22;10576;53.556;9.868;2024-01-07T07:17:25;-0.10;99.90
20831;DHT22;10576;53.556;9.868;2024-01-07T07:19:50;-0.10;99.90
20831;DHT22;10576;53.556;9.868;2024-01-07T07:22:16;-0.10;99.90
20831;DHT22;10576;53.556;9.868;2024-01-07T07:24:41;-0.10;99.90
20831;DHT22;10576;53.556;9.868;2024-01-07T07:27:07;-0.50;99.90
20831;DHT22;10576;53.556;9.868;2024-01-07T07:29:33;-0.10;99.90
20831;DHT22;10576;53.556;9.868;2024-01-07T07:31:58;-0.10;99.90
20831;DHT22;10576;53.556;9.868;2024-01-07T07:34:24;-0.10;99.90
20831;DHT22;10576;53.556;9.868;2024-01-07T07:36:49;-0.30;99.90
20831;DHT22;10576;53.556;9.868;2024-01-07T07:39:15;-0.40;99.90
20831;DHT22;10576;53.556;9.868;2024-01-07T07:41:40;-0.10;99.90
20831;DHT22;10576;53.556;9.868;2024-01-07T07:44:06;-0.10;99.90
20831;DHT22;10576;53.556;9.868;2024-01-07T07:46:32;-0.20;99.90
20831;DHT22;10576;53.556;9.868;2024-01-07T07:48:57;-0.20;99.90
20831;DHT22;10576;53.556;9.868;2024-01-07T07:51:23;-0.20;99.90
20831;DHT22;10576;53.556;9.868;2024-01-07T07:53:49;-0.10;99.90
20831;DHT22;10576;53.556;9.868;2024-01-07T07:56:14;-0.40;99.90
20831;DHT22;10576;53.556;9.868;2024-01-07T07:58:40;-0.10;99.90
20831;DHT22;10576;53.556;9.868;2024-01-07T08:01:05;-0.30;99.90
20831;DHT22;10576;53.556;9.868;2024-01-07T08:03:31;-0.20;99.90
20831;DHT22;10576;53.556;9.868;2024-01-07T08:05:57;-0.30;99.90
20831;DHT22;10576;53.556;9.868;2024-01-07T08:08:23;-0.40;99.90
20831;DHT22;10576;53.556;9.868;2024-01-07T08:10:48;-0.50;99.90
20831;DHT22;10576;53.556;9.868;2024-01-07T08:13:14;-0.50;99.90
20831;DHT22;10576;53.556;9.868;2024-01-07T08:15:39;-0.50;99.90
20831;DHT22;10576;53.556;9.868;2024-01-07T08:18:05;0.40;99.90
20831;DHT22;10576;53.556;9.868;2024-01-07T08:20:30;-0.50;99.90
20831;DHT22;10576;53.556;9.868;2024-01-07T08:22:56;-0.60;99.90
20831;DHT22;10576;53.556;9.868;2024-01-07T08:25:21;-0.70;99.90
20831;DHT22;10576;53.556;9.868;2024-01-07T08:27:48;-0.90;99.90
20831;DHT22;10576;53.556;9.868;2024-01-07T08:30:14;-0.60;99.90
20831;DHT22;10576;53.556;9.868;2024-01-07T08:32:40;-0.70;99.90
20831;DHT22;10576;53.556;9.868;2024-01-07T08:35:05;-0.70;99.90
20831;DHT22;10576;53.556;9.868;2024-01-07T08:37:31;-0.60;99.90
20831;DHT22;10576;53.556;9.868;2024-01-07T08:42:23;-0.70;99.90
20831;DHT22;10576;53.556;9.868;2024-01-07T08:44:48;-0.70;99.90
20831;DHT22;10576;53.556;9.868;2024-01-07T08:47:14;-0.90;99.90
20831;DHT22;10576;53.556;9.868;2024-01-07T08:49:40;0.00;99.90
20831;DHT22;10576;53.556;9.868;2024-01-07T08:52:05;-0.70;99.90
20831;DHT22;10576;53.556;9.868;2024-01-07T08:54:31;-0.60;99.90
20831;DHT22;10576;53.556;9.868;2024-01-07T08:56:58;-0.60;99.90
20831;DHT22;10576;53.556;9.868;2024-01-07T08:59:24;-0.70;99.90
20831;DHT22;10576;53.556;9.868;2024-01-07T09:01:49;-0.70;99.90
20831;DHT22;10576;53.556;9.868;2024-01-07T09:04:15;-0.70;99.90
20831;DHT22;10576;53.556;9.868;2024-01-07T09:06:43;-0.70;99.90
20831;DHT22;10576;53.556;9.868;2024-01-07T09:09:08;-0.60;99.90
20831;DHT22;10576;53.556;9.868;2024-01-07T09:11:34;-0.70;99.90
20831;DHT22;10576;53.556;9.868;2024-01-07T09:14:01;-0.80;99.90
20831;DHT22;10576;53.556;9.868;2024-01-07T09:16:26;-0.30;99.90
20831;DHT22;10576;53.556;9.868;2024-01-07T09:18:52;-0.70;99.90
20831;DHT22;10576;53.556;9.868;2024-01-07T09:21:17;-0.60;99.90
20831;DHT22;10576;53.556;9.868;2024-01-07T09:23:43;-0.70;99.90
20831;DHT22;10576;53.556;9.868;2024-01-07T09:26:08;-0.70;99.90
20831;DHT22;10576;53.556;9.868;2024-01-07T09:28:34;-0.60;99.90
20831;DHT22;10576;53.556;9.868;2024-01-07T09:30:59;-0.50;99.90
20831;DHT22;10576;53.556;9.868;2024-01-07T09:33:25;-0.40;99.90
20831;DHT22;10576;53.556;9.868;2024-01-07T09:35:50;-0.50;99.90
20831;DHT22;10576;53.556;9.868;2024-01-07T09:38:16;-0.50;99.90
20831;DHT22;10576;53.556;9.868;2024-01-07T09:40:42;-0.50;99.90
20831;DHT22;10576;53.556;9.868;2024-01-07T09:43:07;-0.50;99.90
20831;DHT22;10576;53.556;9.868;2024-01-07T09:45:36;-0.70;99.90
20831;DHT22;10576;53.556;9.868;2024-01-07T09:48:02;-0.70;99.90
20831;DHT22;10576;53.556;9.868;2024-01-07T09:50:27;-0.80;99.90
20831;DHT22;10576;53.556;9.868;2024-01-07T09:52:53;2.20;99.90
20831;DHT22;10576;53.556;9.868;2024-01-07T09:55:26;-0.80;99.90
20831;DHT22;10576;53.556;9.868;2024-01-07T09:57:53;-1.00;99.90
20831;DHT22;10576;53.556;9.868;2024-01-07T10:00:19;-0.80;99.90
20831;DHT22;10576;53.556;9.868;2024-01-07T10:02:45;-0.80;99.90
20831;DHT22;10576;53.556;9.868;2024-01-07T10:05:10;-0.90;99.90
20831;DHT22;10576;53.556;9.868;2024-01-07T10:07:36;-0.80;99.90
20831;DHT22;10576;53.556;9.868;2024-01-07T10:12:57;-0.60;99.90
20831;DHT22;10576;53.556;9.868;2024-01-07T10:15:22;-0.60;99.90
20831;DHT22;10576;53.556;9.868;2024-01-07T10:17:48;-0.50;99.90
20831;DHT22;10576;53.556;9.868;2024-01-07T10:20:14;-0.50;99.90
20831;DHT22;10576;53.556;9.868;2024-01-07T10:22:41;-0.60;99.90
20831;DHT22;10576;53.556;9.868;2024-01-07T10:25:11;-0.60;99.90
20831;DHT22;10576;53.556;9.868;2024-01-07T10:27:37;-0.50;99.90
20831;DHT22;10576;53.556;9.868;2024-01-07T10:30:03;-0.40;99.90
20831;DHT22;10576;53.556;9.868;2024-01-07T10:32:29;-0.40;99.90
20831;DHT22;10576;53.556;9.868;2024-01-07T10:34:56;-0.80;99.90
20831;DHT22;10576;53.556;9.868;2024-01-07T10:37:26;-0.70;99.90
20831;DHT22;10576;53.556;9.868;2024-01-07T10:39:52;-0.40;99.90
20831;DHT22;10576;53.556;9.868;2024-01-07T10:42:18;-0.30;99.90
20831;DHT22;10576;53.556;9.868;2024-01-07T10:44:43;-0.30;99.90
20831;DHT22;10576;53.556;9.868;2024-01-07T10:47:09;-0.30;99.90
20831;DHT22;10576;53.556;9.868;2024-01-07T10:49:35;0.10;99.90
20831;DHT22;10576;53.556;9.868;2024-01-07T10:54:28;0.00;99.90
20831;DHT22;10576;53.556;9.868;2024-01-07T10:56:54;0.10;99.90
20831;DHT22;10576;53.556;9.868;2024-01-07T10:59:23;0.10;99.90
20831;DHT22;10576;53.556;9.868;2024-01-07T11:01:48;0.20;99.90
20831;DHT22;10576;53.556;9.868;2024-01-07T11:04:16;0.20;99.90
20831;DHT22;10576;53.556;9.868;2024-01-07T11:06:46;0.20;99.90
20831;DHT22;10576;53.556;9.868;2024-01-07T11:09:33;0.40;99.90
20831;DHT22;10576;53.556;9.868;2024-01-07T11:12:00;3.40;99.90
20831;DHT22;10576;53.556;9.868;2024-01-07T11:17:12;0.50;99.90
20831;DHT22;10576;53.556;9.868;2024-01-07T11:19:50;0.30;99.90
20831;DHT22;10576;53.556;9.868;2024-01-07T11:22:24;0.30;99.90
20831;DHT22;10576;53.556;9.868;2024-01-07T11:24:56;0.30;99.90
20831;DHT22;10576;53.556;9.868;2024-01-07T11:27:22;0.00;99.90
20831;DHT22;10576;53.556;9.868;2024-01-07T11:29:57;0.00;99.90
20831;DHT22;10576;53.556;9.868;2024-01-07T11:32:23;0.00;99.90
20831;DHT22;10576;53.556;9.868;2024-01-07T11:34:52;0.00;99.90
20831;DHT22;10576;53.556;9.868;2024-01-07T11:37:19;0.00;99.90
20831;DHT22;10576;53.556;9.868;2024-01-07T11:39:45;0.20;99.90
20831;DHT22;10576;53.556;9.868;2024-01-07T11:42:10;0.00;99.90
20831;DHT22;10576;53.556;9.868;2024-01-07T11:44:48;-0.50;99.90
20831;DHT22;10576;53.556;9.868;2024-01-07T11:47:15;0.00;99.90
20831;DHT22;10576;53.556;9.868;2024-01-07T11:49:40;-0.10;99.90
20831;DHT22;10576;53.556;9.868;2024-01-07T11:52:06;-0.10;99.90
20831;DHT22;10576;53.556;9.868;2024-01-07T11:54:31;0.00;99.90
20831;DHT22;10576;53.556;9.868;2024-01-07T11:56:57;0.10;99.90
20831;DHT22;10576;53.556;9.868;2024-01-07T11:59:23;-0.30;99.90
20831;DHT22;10576;53.556;9.868;2024-01-07T12:01:48;-0.10;99.90
20831;DHT22;10576;53.556;9.868;2024-01-07T12:04:14;-0.10;99.90
20831;DHT22;10576;53.556;9.868;2024-01-07T12:06:39;-0.10;99.90
20831;DHT22;10576;53.556;9.868;2024-01-07T12:09:05;0.00;99.90
20831;DHT22;10576;53.556;9.868;2024-01-07T12:11:31;0.00;99.90
20831;DHT22;10576;53.556;9.868;2024-01-07T12:13:56;-0.20;99.90
20831;DHT22;10576;53.556;9.868;2024-01-07T12:16:22;-0.10;99.90
20831;DHT22;10576;53.556;9.868;2024-01-07T12:18:48;-0.20;99.90
20831;DHT22;10576;53.556;9.868;2024-01-07T12:21:18;-0.10;99.90
20831;DHT22;10576;53.556;9.868;2024-01-07T12:23:47;-0.10;99.90
20831;DHT22;10576;53.556;9.868;2024-01-07T12:26:13;-0.10;99.90
20831;DHT22;10576;53.556;9.868;2024-01-07T12:28:38;-0.10;99.90
20831;DHT22;10576;53.556;9.868;2024-01-07T12:31:04;0.00;99.90
20831;DHT22;10576;53.556;9.868;2024-01-07T12:33:30;0.00;99.90
20831;DHT22;10576;53.556;9.868;2024-01-07T12:35:57;-0.10;99.90
20831;DHT22;10576;53.556;9.868;2024-01-07T12:38:26;-0.10;99.90
20831;DHT22;10576;53.556;9.868;2024-01-07T12:40:55;-0.20;99.90
20831;DHT22;10576;53.556;9.868;2024-01-07T12:43:21;-0.10;99.90
20831;DHT22;10576;53.556;9.868;2024-01-07T12:45:49;-0.40;99.90
20831;DHT22;10576;53.556;9.868;2024-01-07T12:48:15;-0.10;99.90
20831;DHT22;10576;53.556;9.868;2024-01-07T12:50:40;-0.20;99.90
20831;DHT22;10576;53.556;9.868;2024-01-07T12:53:06;-0.20;99.90
20831;DHT22;10576;53.556;9.868;2024-01-07T12:55:32;-0.20;99.90
20831;DHT22;10576;53.556;9.868;2024-01-07T12:57:57;-0.10;99.90
20831;DHT22;10576;53.556;9.868;2024-01-07T13:00:26;-0.10;99.90
20831;DHT22;10576;53.556;9.868;2024-01-07T13:02:54;-0.10;99.90
20831;DHT22;10576;53.556;9.868;2024-01-07T13:05:19;1.30;99.90
20831;DHT22;10576;53.556;9.868;2024-01-07T13:07:46;0.60;99.90
20831;DHT22;10576;53.556;9.868;2024-01-07T13:10:11;0.20;99.90
20831;DHT22;10576;53.556;9.868;2024-01-07T13:12:37;0.20;99.90
20831;DHT22;10576;53.556;9.868;2024-01-07T13:15:03;-0.10;99.90
20831;DHT22;10576;53.556;9.868;2024-01-07T13:17:29;0.00;99.90
20831;DHT22;10576;53.556;9.868;2024-01-07T13:19:55;-0.20;99.90
20831;DHT22;10576;53.556;9.868;2024-01-07T13:22:21;-0.10;99.90
20831;DHT22;10576;53.556;9.868;2024-01-07T13:24:46;-0.60;99.90
20831;DHT22;10576;53.556;9.868;2024-01-07T13:27:12;-0.40;99.90
20831;DHT22;10576;53.556;9.868;2024-01-07T13:29:38;-0.50;99.90
20831;DHT22;10576;53.556;9.868;2024-01-07T13:32:04;-0.60;99.90
20831;DHT22;10576;53.556;9.868;2024-01-07T13:34:29;-0.50;99.90
20831;DHT22;10576;53.556;9.868;2024-01-07T13:36:55;-0.60;99.90
20831;DHT22;10576;53.556;9.868;2024-01-07T13:39:21;-0.70;99.90
20831;DHT22;10576;53.556;9.868;2024-01-07T13:41:46;-0.60;99.90
20831;DHT22;10576;53.556;9.868;2024-01-07T13:44:12;0.40;99.90
20831;DHT22;10576;53.556;9.868;2024-01-07T13:46:46;-0.70;99.90
20831;DHT22;10576;53.556;9.868;2024-01-07T13:49:14;-0.60;99.90
20831;DHT22;10576;53.556;9.868;2024-01-07T13:51:40;-0.70;99.90
20831;DHT22;10576;53.556;9.868;2024-01-07T13:54:06;-0.70;99.90
20831;DHT22;10576;53.556;9.868;2024-01-07T13:56:32;-0.70;99.90
20831;DHT22;10576;53.556;9.868;2024-01-07T13:59:01;-0.80;99.90
20831;DHT22;10576;53.556;9.868;2024-01-07T14:01:28;-0.80;99.90
20831;DHT22;10576;53.556;9.868;2024-01-07T14:03:54;-0.80;99.90
20831;DHT22;10576;53.556;9.868;2024-01-07T14:06:20;-1.10;99.90
20831;DHT22;10576;53.556;9.868;2024-01-07T14:08:46;-1.20;99.90
20831;DHT22;10576;53.556;9.868;2024-01-07T14:11:12;-0.90;99.90
20831;DHT22;10576;53.556;9.868;2024-01-07T14:13:37;-0.90;99.90
20831;DHT22;10576;53.556;9.868;2024-01-07T14:16:03;-1.00;99.90
20831;DHT22;10576;53.556;9.868;2024-01-07T14:18:28;-1.00;99.90
20831;DHT22;10576;53.556;9.868;2024-01-07T14:20:54;-1.00;99.90
20831;DHT22;10576;53.556;9.868;2024-01-07T14:23:19;-1.00;99.90
20831;DHT22;10576;53.556;9.868;2024-01-07T14:25:45;-1.10;99.90
20831;DHT22;10576;53.556;9.868;2024-01-07T14:28:11;-1.20;99.90
20831;DHT22;10576;53.556;9.868;2024-01-07T14:30:36;-1.10;99.90
20831;DHT22;10576;53.556;9.868;2024-01-07T14:33:02;-1.10;99.90
20831;DHT22;10576;53.556;9.868;2024-01-07T14:35:27;-1.10;99.90
20831;DHT22;10576;53.556;9.868;2024-01-07T14:37:55;-1.40;99.90
20831;DHT22;10576;53.556;9.868;2024-01-07T14:40:22;-1.40;99.90
20831;DHT22;10576;53.556;9.868;2024-01-07T14:42:48;-1.60;99.90
20831;DHT22;10576;53.556;9.868;2024-01-07T14:45:13;-1.50;99.90
20831;DHT22;10576;53.556;9.868;2024-01-07T14:47:38;-1.50;99.90
20831;DHT22;10576;53.556;9.868;2024-01-07T14:50:04;-1.40;99.90
20831;DHT22;10576;53.556;9.868;2024-01-07T14:52:30;-1.40;99.90
20831;DHT22;10576;53.556;9.868;2024-01-07T14:54:55;-1.40;99.90
20831;DHT22;10576;53.556;9.868;2024-01-07T14:57:21;-1.60;99.90
20831;DHT22;10576;53.556;9.868;2024-01-07T14:59:47;-1.60;99.90
20831;DHT22;10576;53.556;9.868;2024-01-07T15:02:12;-1.50;99.90
20831;DHT22;10576;53.556;9.868;2024-01-07T15:04:38;-1.60;99.90
20831;DHT22;10576;53.556;9.868;2024-01-07T15:07:03;-1.60;99.90
20831;DHT22;10576;53.556;9.868;2024-01-07T15:09:29;-1.80;99.90
20831;DHT22;10576;53.556;9.868;2024-01-07T15:11:55;-1.60;99.90
20831;DHT22;10576;53.556;9.868;2024-01-07T15:14:21;-1.60;99.90
20831;DHT22;10576;53.556;9.868;2024-01-07T15:16:46;-1.70;99.90
20831;DHT22;10576;53.556;9.868;2024-01-07T15:19:17;-1.60;99.90
20831;DHT22;10576;53.556;9.868;2024-01-07T15:21:42;-1.50;99.90
20831;DHT22;10576;53.556;9.868;2024-01-07T15:24:08;-1.50;99.90
20831;DHT22;10576;53.556;9.868;2024-01-07T15:26:34;-1.50;99.90
20831;DHT22;10576;53.556;9.868;2024-01-07T15:29:01;-1.50;99.90
20831;DHT22;10576;53.556;9.868;2024-01-07T15:31:27;-1.60;99.90
20831;DHT22;10576;53.556;9.868;2024-01-07T15:33:52;-1.70;99.90